createdAt,value
2019-04-28T00:01:32.959Z,1.40
2019-04-28T00:04:03.429Z,1.43
2019-04-28T00:06:32.936Z,1.15
2019-04-28T00:09:02.292Z,1.37
2019-04-28T00:11:31.799Z,1.33
2019-04-28T00:14:01.832Z,1.43
2019-04-28T00:16:31.397Z,1.33
2019-04-28T00:19:01.220Z,1.40
2019-04-28T00:21:55.461Z,2.00
2019-04-28T00:24:42.484Z,1.67
2019-04-28T00:27:31.601Z,1.00
2019-04-28T00:30:02.123Z,0.97
2019-04-28T00:32:32.558Z,1.27
2019-04-28T00:35:02.443Z,1.57
2019-04-28T00:37:37.112Z,1.43
2019-04-28T00:40:08.393Z,1.30
2019-04-28T00:42:37.715Z,1.03
2019-04-28T00:45:09.055Z,1.27
2019-04-28T00:47:38.151Z,1.03
2019-04-28T00:50:07.809Z,1.00
2019-04-28T00:52:36.984Z,1.00
2019-04-28T00:55:06.531Z,1.40
2019-04-28T00:57:35.621Z,1.10
2019-04-28T01:00:05.537Z,1.03
2019-04-28T01:02:38.671Z,1.33
2019-04-28T01:05:11.246Z,1.27
2019-04-28T01:07:41.410Z,1.20
2019-04-28T01:10:11.588Z,1.77
2019-04-28T01:12:41.180Z,1.97
2019-04-28T01:15:20.220Z,1.50
2019-04-28T01:17:57.282Z,1.80
2019-04-28T01:20:26.511Z,1.33
2019-04-28T01:22:55.673Z,1.40
2019-04-28T01:25:24.787Z,1.20
2019-04-28T01:27:55.093Z,1.57
2019-04-28T01:30:50.844Z,1.42
2019-04-28T01:33:40.753Z,1.27
2019-04-28T01:36:10.428Z,1.50
2019-04-28T01:38:40.279Z,1.67
2019-04-28T01:41:09.996Z,1.20
2019-04-28T01:43:39.150Z,1.30
2019-04-28T01:46:10.051Z,1.00
2019-04-28T01:48:39.822Z,1.00
2019-04-28T01:51:09.576Z,1.20
2019-04-28T01:53:39.597Z,1.00
2019-04-28T01:56:10.489Z,1.15
2019-04-28T01:58:40.357Z,1.10
2019-04-28T02:01:10.615Z,2.13
2019-04-28T02:03:40.426Z,1.55
2019-04-28T02:06:10.078Z,1.60
2019-04-28T02:08:39.846Z,1.60
2019-04-28T02:11:10.090Z,1.85
2019-04-28T02:13:39.774Z,1.62
2019-04-28T02:16:09.734Z,1.50
2019-04-28T02:18:39.852Z,1.67
2019-04-28T02:21:22.696Z,1.60
2019-04-28T02:23:51.717Z,1.50
2019-04-28T02:26:20.920Z,1.70
2019-04-28T02:28:50.442Z,1.80
2019-04-28T02:31:24.083Z,1.47
2019-04-28T02:33:53.768Z,1.93
2019-04-28T02:36:21.727Z,1.93
2019-04-28T02:38:51.521Z,1.67
2019-04-28T02:41:20.979Z,1.70
2019-04-28T02:43:50.987Z,1.67
2019-04-28T02:46:20.762Z,1.73
2019-04-28T02:48:53.583Z,2.15
2019-04-28T02:51:30.830Z,1.40
2019-04-28T02:54:00.644Z,1.90
2019-04-28T02:56:30.780Z,1.92
2019-04-28T02:59:01.082Z,1.82
2019-04-28T03:01:30.942Z,1.80
2019-04-28T03:04:00.480Z,1.83
2019-04-28T03:06:30.648Z,2.07
2019-04-28T03:09:00.336Z,1.30
2019-04-28T03:11:31.413Z,1.60
2019-04-28T03:14:01.069Z,1.57
2019-04-28T03:16:30.590Z,1.70
2019-04-28T03:19:01.170Z,1.75
2019-04-28T03:21:31.389Z,1.97
2019-04-28T03:24:01.403Z,1.98
2019-04-28T03:26:53.045Z,1.57
2019-04-28T03:29:31.514Z,1.60
2019-04-28T03:32:39.794Z,1.83
2019-04-28T03:34:56.828Z,1.93
2019-04-28T03:37:26.229Z,2.10
2019-04-28T03:39:55.433Z,2.22
2019-04-28T03:42:24.526Z,1.97
2019-04-28T03:44:54.515Z,2.60
2019-04-28T03:47:23.630Z,2.70
2019-04-28T03:49:52.884Z,2.97
2019-04-28T03:52:22.053Z,2.20
2019-04-28T03:54:51.494Z,3.70
2019-04-28T03:57:21.614Z,2.33
2019-04-28T03:59:51.551Z,2.27
2019-04-28T04:02:23.827Z,2.60
2019-04-28T04:04:52.508Z,2.47
2019-04-28T04:07:22.400Z,2.67
2019-04-28T04:10:01.719Z,2.63
2019-04-28T04:12:41.208Z,2.57
2019-04-28T04:15:24.335Z,3.00
2019-04-28T04:18:11.042Z,2.90
2019-04-28T04:20:41.144Z,3.00
2019-04-28T04:23:11.288Z,2.80
2019-04-28T04:25:41.636Z,3.40
2019-04-28T04:28:11.297Z,3.83
2019-04-28T04:30:41.093Z,2.77
2019-04-28T04:33:11.302Z,2.70
2019-04-28T04:35:43.434Z,2.93
2019-04-28T04:38:11.435Z,3.17
2019-04-28T04:40:41.202Z,3.33
2019-04-28T04:43:11.397Z,3.63
2019-04-28T04:45:40.782Z,3.70
2019-04-28T04:48:11.643Z,3.00
2019-04-28T04:50:41.279Z,3.10
2019-04-28T04:53:11.139Z,3.10
2019-04-28T04:55:41.081Z,2.63
2019-04-28T04:58:10.857Z,3.43
2019-04-28T05:00:50.881Z,2.70
2019-04-28T05:03:22.584Z,2.83
2019-04-28T05:05:51.788Z,3.50
2019-04-28T05:08:20.907Z,3.27
2019-04-28T05:10:50.505Z,3.17
2019-04-28T05:13:20.124Z,3.53
2019-04-28T05:15:50.749Z,3.60
2019-04-28T05:18:20.264Z,3.10
2019-04-28T05:20:50.422Z,3.03
2019-04-28T05:23:49.317Z,3.15
2019-04-28T05:26:21.225Z,3.47
2019-04-28T05:28:53.223Z,2.95
2019-04-28T05:31:24.186Z,3.85
2019-04-28T05:33:51.445Z,2.80
2019-04-28T05:36:20.599Z,3.10
2019-04-28T05:38:49.824Z,3.40
2019-04-28T05:41:19.652Z,3.10
2019-04-28T05:43:50.436Z,2.30
2019-04-28T05:46:19.748Z,2.77
2019-04-28T05:49:00.615Z,3.17
2019-04-28T05:51:31.870Z,3.67
2019-04-28T05:54:12.343Z,3.33
2019-04-28T05:57:03.587Z,3.85
2019-04-28T05:59:45.925Z,3.42
2019-04-28T06:02:21.870Z,3.27
2019-04-28T06:04:51.304Z,3.60
2019-04-28T06:07:30.548Z,3.12
2019-04-28T06:10:00.174Z,2.92
2019-04-28T06:12:31.664Z,2.83
2019-04-28T06:15:00.166Z,3.15
2019-04-28T06:17:29.537Z,3.10
2019-04-28T06:20:00.173Z,2.95
2019-04-28T06:22:29.463Z,3.65
2019-04-28T06:24:58.661Z,3.07
2019-04-28T06:27:27.921Z,3.08
2019-04-28T06:29:57.683Z,3.30
2019-04-28T06:32:28.166Z,3.70
2019-04-28T06:34:57.624Z,3.22
2019-04-28T06:37:27.405Z,4.00
2019-04-28T06:39:56.578Z,3.98
2019-04-28T06:42:25.670Z,3.87
2019-04-28T06:44:54.869Z,3.52
2019-04-28T06:47:23.981Z,3.42
2019-04-28T06:49:53.138Z,3.75
2019-04-28T06:52:22.433Z,3.47
2019-04-28T06:54:51.560Z,4.08
2019-04-28T06:57:20.925Z,4.12
2019-04-28T06:59:50.387Z,4.10
2019-04-28T07:02:19.515Z,3.60
2019-04-28T07:05:00.875Z,3.55
2019-04-28T07:07:20.407Z,3.52
2019-04-28T07:09:49.711Z,3.65
2019-04-28T07:12:19.108Z,3.80
2019-04-28T07:14:48.418Z,3.67
2019-04-28T07:17:17.712Z,3.45
2019-04-28T07:19:51.067Z,4.50
2019-04-28T07:22:25.314Z,4.08
2019-04-28T07:24:54.655Z,2.90
2019-04-28T07:27:26.631Z,3.83
2019-04-28T07:29:56.300Z,3.42
2019-04-28T07:32:25.552Z,3.40
2019-04-28T07:34:54.749Z,3.00
2019-04-28T07:37:24.111Z,4.08
2019-04-28T07:39:53.291Z,3.75
2019-04-28T07:42:22.558Z,3.92
2019-04-28T07:44:51.768Z,4.53
2019-04-28T07:47:20.958Z,4.28
2019-04-28T07:49:50.245Z,4.35
2019-04-28T07:52:34.347Z,4.33
2019-04-28T07:55:03.628Z,4.55
2019-04-28T07:57:32.743Z,3.87
2019-04-28T08:00:01.879Z,4.42
2019-04-28T08:02:30.982Z,4.30
2019-04-28T08:05:00.215Z,4.78
2019-04-28T08:07:29.596Z,4.37
2019-04-28T08:09:58.816Z,4.30
2019-04-28T08:12:27.852Z,3.58
2019-04-28T08:14:57.068Z,3.58
2019-04-28T08:17:26.480Z,3.90
2019-04-28T08:19:55.679Z,3.83
2019-04-28T08:22:24.804Z,3.85
2019-04-28T08:24:53.982Z,4.58
2019-04-28T08:27:23.265Z,3.72
2019-04-28T08:29:58.403Z,4.08
2019-04-28T08:32:32.163Z,4.60
2019-04-28T08:35:01.300Z,3.85
2019-04-28T08:37:30.489Z,4.60
2019-04-28T08:39:59.599Z,4.30
2019-04-28T08:42:28.715Z,4.33
2019-04-28T08:44:57.786Z,4.78
2019-04-28T08:47:27.284Z,4.78
2019-04-28T08:49:56.429Z,4.97
2019-04-28T08:52:25.581Z,5.95
2019-04-28T08:54:54.839Z,5.78
2019-04-28T08:57:24.054Z,4.85
2019-04-28T08:59:53.100Z,4.62
2019-04-28T09:02:22.239Z,4.78
2019-04-28T09:04:51.339Z,4.33
2019-04-28T09:07:20.467Z,5.00
2019-04-28T09:09:49.677Z,5.45
2019-04-28T09:12:18.938Z,4.55
2019-04-28T09:14:48.090Z,4.20
2019-04-28T09:17:17.495Z,4.85
2019-04-28T09:19:46.637Z,4.05
2019-04-28T09:22:15.759Z,4.50
2019-04-28T09:24:45.079Z,3.85
2019-04-28T09:27:14.403Z,4.00
2019-04-28T09:29:43.547Z,3.85
2019-04-28T09:32:12.742Z,4.03
2019-04-28T09:34:41.969Z,3.30
2019-04-28T09:37:11.071Z,3.85
2019-04-28T09:39:45.060Z,4.30
2019-04-28T09:42:31.966Z,4.55
2019-04-28T09:45:02.143Z,4.30
2019-04-28T09:47:31.278Z,5.45
2019-04-28T09:50:00.410Z,4.83
2019-04-28T09:52:29.634Z,5.10
2019-04-28T09:54:58.813Z,5.00
2019-04-28T09:57:27.979Z,4.40
2019-04-28T09:59:57.190Z,4.97
2019-04-28T10:02:26.283Z,4.33
2019-04-28T10:04:55.590Z,4.75
2019-04-28T10:07:24.803Z,5.10
2019-04-28T10:09:53.951Z,4.75
2019-04-28T10:12:27.298Z,4.55
2019-04-28T10:14:54.027Z,4.40
2019-04-28T10:17:23.201Z,4.53
2019-04-28T10:19:52.392Z,4.80
2019-04-28T10:22:21.792Z,4.62
2019-04-28T10:24:51.023Z,4.33
2019-04-28T10:27:20.119Z,4.08
2019-04-28T10:29:49.271Z,4.17
2019-04-28T10:32:18.822Z,4.45
2019-04-28T10:34:54.668Z,4.62
2019-04-28T10:37:18.950Z,4.42
2019-04-28T10:39:58.450Z,3.92
2019-04-28T10:42:27.807Z,3.65
2019-04-28T10:45:01.609Z,4.30
2019-04-28T10:47:30.809Z,4.37
2019-04-28T10:50:00.357Z,8.83
2019-04-28T10:52:29.598Z,6.28
2019-04-28T10:54:58.872Z,5.87
2019-04-28T10:57:27.980Z,5.10
2019-04-28T10:59:57.221Z,4.20
2019-04-28T11:02:26.580Z,4.50
2019-04-28T11:05:09.213Z,4.72
2019-04-28T11:07:38.777Z,4.62
2019-04-28T11:10:23.445Z,4.92
2019-04-28T11:12:52.542Z,4.70
2019-04-28T11:15:26.635Z,4.85
2019-04-28T11:17:56.036Z,4.22
2019-04-28T11:20:25.407Z,5.12
2019-04-28T11:22:54.571Z,4.60
2019-04-28T11:25:23.768Z,4.25
2019-04-28T11:27:55.423Z,4.60
2019-04-28T11:30:24.464Z,4.37
2019-04-28T11:33:06.840Z,4.92
2019-04-28T11:35:36.486Z,5.08
2019-04-28T11:38:05.692Z,4.45
2019-04-28T11:40:34.815Z,4.22
2019-04-28T11:43:04.245Z,3.50
2019-04-28T11:45:33.467Z,3.80
2019-04-28T11:48:02.572Z,3.70
2019-04-28T11:50:31.746Z,4.05
2019-04-28T11:53:01.824Z,4.10
2019-04-28T11:55:30.914Z,4.12
2019-04-28T11:58:00.197Z,4.30
2019-04-28T12:00:32.891Z,5.12
2019-04-28T12:03:02.315Z,5.47
2019-04-28T12:05:51.079Z,4.95
2019-04-28T12:08:20.332Z,4.50
2019-04-28T12:10:56.262Z,5.10
2019-04-28T12:13:39.047Z,8.28
2019-04-28T12:16:27.179Z,3.95
2019-04-28T12:19:11.158Z,5.40
2019-04-28T12:21:40.300Z,3.60
2019-04-28T12:24:09.459Z,3.00
2019-04-28T12:26:38.640Z,2.90
2019-04-28T12:29:07.813Z,2.92
2019-04-28T12:31:36.975Z,2.87
2019-04-28T12:34:06.215Z,2.72
2019-04-28T12:36:35.320Z,3.27
2019-04-28T12:39:06.352Z,2.83
2019-04-28T12:41:35.450Z,2.83
2019-04-28T12:44:04.535Z,3.75
2019-04-28T12:46:33.668Z,2.87
2019-04-28T12:49:09.307Z,3.30
2019-04-28T12:51:38.694Z,2.90
2019-04-28T12:54:09.651Z,2.60
2019-04-28T12:56:38.735Z,2.90
2019-04-28T12:59:14.546Z,2.83
2019-04-28T13:02:02.696Z,2.72
2019-04-28T13:04:50.855Z,2.37
2019-04-28T13:07:21.173Z,3.08
2019-04-28T13:09:50.894Z,4.20
2019-04-28T13:12:19.987Z,3.85
2019-04-28T13:14:49.206Z,3.55
2019-04-28T13:17:21.939Z,3.30
2019-04-28T13:19:51.055Z,2.98
2019-04-28T13:22:20.214Z,2.70
2019-04-28T13:24:49.464Z,2.62
2019-04-28T13:27:18.567Z,2.72
2019-04-28T13:29:47.761Z,2.37
2019-04-28T13:32:16.979Z,2.05
2019-04-28T13:34:46.175Z,1.90
2019-04-28T13:37:15.517Z,2.20
2019-04-28T13:40:04.125Z,2.02
2019-04-28T13:42:33.264Z,2.62
2019-04-28T13:45:09.001Z,2.20
2019-04-28T13:47:39.327Z,2.12
2019-04-28T13:50:17.727Z,2.33
2019-04-28T13:52:47.056Z,2.27
2019-04-28T13:55:41.205Z,2.20
2019-04-28T13:58:10.540Z,2.60
2019-04-28T14:01:04.867Z,2.27
2019-04-28T14:03:55.960Z,2.40
2019-04-28T14:06:28.494Z,2.10
2019-04-28T14:08:56.828Z,2.40
2019-04-28T14:11:26.105Z,2.50
2019-04-28T14:13:55.330Z,2.35
2019-04-28T14:16:24.597Z,2.87
2019-04-28T14:18:53.717Z,2.70
2019-04-28T14:21:23.018Z,2.55
2019-04-28T14:23:52.181Z,3.02
2019-04-28T14:26:21.623Z,3.35
2019-04-28T14:28:56.559Z,2.75
2019-04-28T14:31:25.735Z,2.70
2019-04-28T14:33:55.081Z,3.12
2019-04-28T14:36:24.356Z,3.35
2019-04-28T14:38:53.675Z,2.60
2019-04-28T14:41:22.883Z,2.35
2019-04-28T14:43:52.085Z,2.90
2019-04-28T14:46:21.282Z,3.00
2019-04-28T14:48:50.658Z,2.75
2019-04-28T14:51:19.988Z,2.72
2019-04-28T14:53:49.260Z,2.60
2019-04-28T14:56:18.395Z,2.85
2019-04-28T14:58:47.858Z,2.12
2019-04-28T15:01:37.340Z,2.45
2019-04-28T15:04:11.253Z,2.30
2019-04-28T15:06:55.529Z,2.58
2019-04-28T15:09:26.774Z,2.80
2019-04-28T15:11:59.552Z,2.80
2019-04-28T15:14:28.814Z,3.42
2019-04-28T15:16:58.121Z,3.05
2019-04-28T15:19:27.329Z,2.90
2019-04-28T15:21:56.545Z,3.17
2019-04-28T15:24:25.931Z,3.70
2019-04-28T15:26:55.105Z,3.67
2019-04-28T15:29:24.416Z,4.10
2019-04-28T15:31:53.741Z,4.53
2019-04-28T15:34:22.917Z,4.62
2019-04-28T15:36:52.160Z,4.70
2019-04-28T15:39:21.419Z,5.00
2019-04-28T15:41:50.552Z,5.78
2019-04-28T15:44:19.876Z,5.80
2019-04-28T15:46:49.039Z,6.85
2019-04-28T15:49:18.160Z,8.15
2019-04-28T15:51:47.420Z,6.92
2019-04-28T15:54:16.692Z,7.47
2019-04-28T15:56:47.916Z,7.83
2019-04-28T15:59:17.883Z,7.45
2019-04-28T16:01:47.212Z,7.92
2019-04-28T16:04:18.378Z,7.30
2019-04-28T16:06:52.111Z,7.47
2019-04-28T16:09:22.342Z,7.60
2019-04-28T16:11:52.017Z,6.80
2019-04-28T16:14:22.187Z,6.95
2019-04-28T16:16:51.924Z,7.33
2019-04-28T16:19:21.869Z,7.17
2019-04-28T16:21:51.181Z,6.80
2019-04-28T16:24:20.616Z,6.58
2019-04-28T16:26:49.993Z,6.72
2019-04-28T16:29:19.437Z,6.17
2019-04-28T16:31:48.574Z,6.60
2019-04-28T16:34:17.780Z,6.70
2019-04-28T16:36:48.129Z,6.05
2019-04-28T16:39:17.290Z,4.50
2019-04-28T16:42:08.455Z,4.42
2019-04-28T16:45:04.211Z,4.90
2019-04-28T16:47:34.231Z,5.00
2019-04-28T16:50:04.015Z,5.15
2019-04-28T16:52:33.920Z,4.75
2019-04-28T16:55:21.979Z,5.12
2019-04-28T16:58:13.890Z,4.80
2019-04-28T17:01:06.968Z,5.62
2019-04-28T17:03:38.073Z,5.40
2019-04-28T17:06:16.290Z,5.45
2019-04-28T17:08:46.175Z,6.47
2019-04-28T17:11:19.115Z,5.97
2019-04-28T17:13:48.653Z,5.78
2019-04-28T17:16:17.872Z,5.80
2019-04-28T17:18:47.215Z,5.08
2019-04-28T17:21:16.535Z,5.20
2019-04-28T17:23:45.702Z,5.12
2019-04-28T17:26:15.089Z,5.62
2019-04-28T17:28:44.351Z,5.55
2019-04-28T17:31:13.927Z,5.35
2019-04-28T17:33:43.121Z,5.40
2019-04-28T17:36:12.365Z,5.00
2019-04-28T17:38:41.723Z,4.95
2019-04-28T17:41:10.867Z,5.58
2019-04-28T17:43:40.083Z,5.00
2019-04-28T17:46:09.283Z,5.42
2019-04-28T17:48:41.957Z,5.35
2019-04-28T17:51:11.227Z,6.15
2019-04-28T17:53:40.672Z,5.35
2019-04-28T17:56:09.781Z,6.00
2019-04-28T17:58:39.073Z,5.30
2019-04-28T18:01:30.441Z,6.25
2019-04-28T18:04:36.760Z,6.15
2019-04-28T18:07:11.439Z,6.50
2019-04-28T18:09:40.641Z,6.20
2019-04-28T18:12:09.962Z,5.90
2019-04-28T18:14:40.561Z,6.55
2019-04-28T18:17:28.917Z,6.47
2019-04-28T18:19:58.411Z,5.80
2019-04-28T18:22:27.660Z,5.35
2019-04-28T18:24:57.046Z,5.70
2019-04-28T18:27:26.312Z,5.58
2019-04-28T18:29:55.587Z,5.90
2019-04-28T18:32:50.241Z,6.73
2019-04-28T18:35:25.694Z,6.67
2019-04-28T18:38:03.156Z,6.87
2019-04-28T18:40:55.219Z,6.95
2019-04-28T18:43:46.769Z,6.83
2019-04-28T18:46:19.035Z,6.28
2019-04-28T18:48:48.287Z,6.40
2019-04-28T18:51:17.531Z,6.55
2019-04-28T18:53:46.812Z,7.10
2019-04-28T18:56:16.054Z,6.08
2019-04-28T18:58:45.254Z,7.22
2019-04-28T19:01:30.946Z,7.25
2019-04-28T19:04:00.160Z,7.20
2019-04-28T19:06:29.419Z,7.05
2019-04-28T19:09:04.057Z,7.10
2019-04-28T19:11:41.214Z,7.25
2019-04-28T19:14:23.182Z,6.87
2019-04-28T19:17:17.778Z,6.90
2019-04-28T19:19:47.340Z,6.90
2019-04-28T19:22:16.660Z,7.58
2019-04-28T19:24:45.927Z,8.28
2019-04-28T19:27:15.442Z,8.05
2019-04-28T19:29:44.989Z,6.47
2019-04-28T19:32:14.297Z,7.05
2019-04-28T19:34:43.420Z,7.03
2019-04-28T19:37:12.566Z,7.37
2019-04-28T19:39:41.779Z,7.83
2019-04-28T19:42:11.528Z,7.55
2019-04-28T19:44:40.674Z,7.30
2019-04-28T19:47:09.928Z,7.08
2019-04-28T19:49:39.201Z,7.67
2019-04-28T19:52:08.482Z,7.03
2019-04-28T19:54:41.022Z,7.58
2019-04-28T19:57:24.582Z,7.28
2019-04-28T20:00:11.643Z,6.85
2019-04-28T20:02:40.917Z,6.67
2019-04-28T20:05:10.129Z,6.85
2019-04-28T20:07:40.940Z,7.45
2019-04-28T20:10:10.321Z,7.83
2019-04-28T20:12:39.727Z,7.83
2019-04-28T20:15:08.976Z,8.33
2019-04-28T20:17:38.209Z,8.03
2019-04-28T20:20:07.682Z,8.50
2019-04-28T20:22:36.927Z,7.95
2019-04-28T20:25:06.352Z,7.62
2019-04-28T20:27:35.509Z,8.30
2019-04-28T20:30:04.986Z,7.97
2019-04-28T20:32:44.086Z,8.28
2019-04-28T20:35:15.633Z,8.10
2019-04-28T20:37:51.711Z,7.60
2019-04-28T20:40:27.041Z,7.45
2019-04-28T20:43:11.865Z,8.33
2019-04-28T20:45:41.084Z,8.38
2019-04-28T20:48:10.439Z,8.43
2019-04-28T20:50:39.797Z,8.88
2019-04-28T20:53:09.343Z,9.73
2019-04-28T20:55:38.590Z,9.30
2019-04-28T20:58:07.820Z,10.08
2019-04-28T21:00:37.049Z,10.70
2019-04-28T21:03:06.259Z,9.75
2019-04-28T21:05:35.554Z,10.65
2019-04-28T21:08:04.766Z,9.73
2019-04-28T21:10:38.332Z,9.98
2019-04-28T21:13:05.120Z,10.20
2019-04-28T21:15:34.266Z,10.13
2019-04-28T21:18:03.555Z,10.57
2019-04-28T21:20:32.776Z,11.18
2019-04-28T21:23:02.099Z,10.82
2019-04-28T21:25:31.225Z,10.57
2019-04-28T21:28:00.346Z,11.45
2019-04-28T21:30:29.495Z,11.57
2019-04-28T21:32:58.724Z,12.98
2019-04-28T21:35:27.967Z,12.00
2019-04-28T21:38:00.129Z,12.10
2019-04-28T21:40:29.615Z,12.73
2019-04-28T21:43:17.794Z,12.98
2019-04-28T21:46:14.796Z,13.77
2019-04-28T21:48:46.040Z,14.47
2019-04-28T21:51:15.707Z,13.00
2019-04-28T21:53:44.828Z,13.15
2019-04-28T21:56:14.003Z,13.17
2019-04-28T21:58:43.231Z,13.33
2019-04-28T22:01:15.635Z,13.67
2019-04-28T22:03:44.862Z,14.00
2019-04-28T22:06:14.155Z,14.57
2019-04-28T22:08:43.532Z,13.93
2019-04-28T22:11:12.646Z,14.77
2019-04-28T22:13:41.801Z,14.20
2019-04-28T22:16:10.928Z,16.60
2019-04-28T22:18:40.073Z,14.93
2019-04-28T22:21:09.376Z,15.70
2019-04-28T22:23:48.836Z,15.03
2019-04-28T22:26:35.827Z,14.73
2019-04-28T22:29:05.003Z,15.20
2019-04-28T22:31:34.101Z,14.78
2019-04-28T22:34:03.418Z,16.20
2019-04-28T22:36:32.619Z,14.33
2019-04-28T22:39:01.685Z,14.50
2019-04-28T22:41:30.852Z,15.50
2019-04-28T22:44:00.006Z,14.87
2019-04-28T22:46:29.288Z,15.80
2019-04-28T22:49:00.075Z,15.87
2019-04-28T22:51:29.235Z,16.27
2019-04-28T22:54:00.254Z,16.50
2019-04-28T22:56:39.647Z,15.03
2019-04-28T22:59:40.095Z,14.57
2019-04-28T23:02:13.195Z,14.77
2019-04-28T23:04:47.329Z,14.25
2019-04-28T23:07:16.597Z,15.63
2019-04-28T23:09:45.721Z,14.10
2019-04-28T23:12:14.831Z,14.73
2019-04-28T23:14:43.969Z,14.17
2019-04-28T23:17:15.517Z,15.40
2019-04-28T23:19:44.721Z,13.90
2019-04-28T23:22:19.223Z,15.28
2019-04-28T23:24:48.304Z,14.87
2019-04-28T23:27:17.391Z,15.60
2019-04-28T23:29:46.550Z,15.03
2019-04-28T23:32:15.919Z,15.47
2019-04-28T23:34:45.027Z,15.97
2019-04-28T23:37:14.260Z,15.45
2019-04-28T23:39:43.378Z,15.83
2019-04-28T23:42:21.797Z,15.33
2019-04-28T23:44:50.967Z,15.37
2019-04-28T23:47:20.140Z,15.97
2019-04-28T23:49:49.261Z,16.07
2019-04-28T23:52:42.388Z,15.07
2019-04-28T23:55:11.768Z,15.37
2019-04-28T23:57:40.855Z,16.30
